Time;durP1;ratioP1;P1;durP2;ratioP2;P2;SDS_P1;SDS_P2;PMS_P1;PMS_P2;Temp;Humidity;BMP_temperature;BMP_pressure;BME280_temperature;BME280_humidity;BME280_pressure;Samples;Min_cycle;Max_cycle;Signal;HPM_P1;HPM_P2
2023/06/16 00:00:13;;;;;;;;;;;;;;;;;;4990871;28;8481;-85
2023/06/16 00:02:41;;;;;;;;;;;;;;;;;;4990727;28;8503;-84
2023/06/16 00:05:12;;;;;;;;;;;;;;;;;;4990601;28;8619;-84
2023/06/16 00:07:39;;;;;;;;;;;;;;;;;;4990685;28;8521;-84
2023/06/16 00:10:08;;;;;;;;;;;;;;;;;;4990632;28;8718;-83
2023/06/16 00:12:35;;;;;;;;;;;;;;;;;;4990727;28;8578;-84
2023/06/16 00:15:02;;;;;;;;;;;;;;;;;;4990471;28;9365;-84
2023/06/16 00:17:28;;;;;;;;;;;;;;;;;;4990939;28;7174;-83
2023/06/16 00:19:57;;;;;;;;;;;;;;;;;;4974356;28;8502;-84
2023/06/16 00:22:26;;;;;;;;;;;;;;;;;;4990554;28;7351;-83
2023/06/16 00:24:53;;;;;;;;;;;;;;;;;;4990349;28;8497;-83
2023/06/16 00:27:22;;;;;;;;;;;;;;;;;;4990514;28;8716;-83
2023/06/16 00:29:48;;;;;;;;;;;;;;;;;;4990243;28;8594;-84
2023/06/16 00:32:14;;;;;;;;;;;;;;;;;;4990229;28;8588;-86
2023/06/16 00:34:40;;;;;;;;;;;;;;;;;;4990430;28;8827;-85
2023/06/16 00:37:05;;;;;;;;;;;;;;;;;;4990058;28;8484;-85
2023/06/16 00:39:31;;;;;;;;;;;;;;;;;;4990237;28;8550;-85
2023/06/16 00:41:57;;;;;;;;;;;;;;;;;;4989936;28;7423;-85
2023/06/16 00:44:23;;;;;;;;;;;;;;;;;;4990186;28;7494;-86
2023/06/16 00:46:49;;;;;;;;;;;;;;;;;;4989786;28;8449;-86
2023/06/16 00:49:15;;;;;;;;;;;;;;;;;;4989907;28;8520;-85
2023/06/16 00:51:42;;;;;;;;;;;;;;;;;;4974384;28;8512;-85
2023/06/16 00:54:10;;;;;;;;;;;;;;;;;;4990137;28;8499;-85
2023/06/16 00:56:38;;;;;;;;;;;;;;;;;;4989953;28;8520;-83
2023/06/16 00:59:05;;;;;;;;;;;;;;;;;;4989832;28;8606;-82
2023/06/16 01:01:31;;;;;;;;;;;;;;;;;;4989858;28;8482;-82
2023/06/16 01:03:57;;;;;;;;;;;;;;;;;;4990131;28;8569;-83
2023/06/16 01:06:28;;;;;;;;;;;;;;;;;;4989735;28;8804;-83
2023/06/16 01:09:03;;;;;;;;;;;;;;;;;;4973560;28;8516;-83
2023/06/16 01:11:37;;;;;;;;;;;;;;;;;;4989704;28;8871;-83
2023/06/16 01:14:07;;;;;;;;;;;;;;;;;;4990161;28;8505;-84
2023/06/16 01:16:35;;;;;;;;;;;;;;;;;;4989930;28;8521;-84
2023/06/16 01:19:04;;;;;;;;;;;;;;;;;;4989873;28;8814;-84
2023/06/16 01:21:47;;;;;;;;;;;;;;;;;;4989333;28;8752;-84
2023/06/16 01:24:16;;;;;;;;;;;;;;;;;;4973484;28;7165;-84
2023/06/16 01:26:47;;;;;;;;;;;;;;;;;;4989560;28;8744;-84
2023/06/16 01:29:14;;;;;;;;;;;;;;;;;;4989505;28;8891;-84
2023/06/16 01:31:41;;;;;;;;;;;;;;;;;;4989654;28;8702;-85
2023/06/16 01:34:08;;;;;;;;;;;;;;;;;;4989300;28;8609;-84
2023/06/16 01:36:36;;;;;;;;;;;;;;;;;;4989486;28;8531;-84
2023/06/16 01:39:03;;;;;;;;;;;;;;;;;;4989342;28;8701;-83
2023/06/16 01:41:30;;;;;;;;;;;;;;;;;;4989334;28;9471;-84
2023/06/16 01:43:56;;;;;;;;;;;;;;;;;;4989333;28;8861;-84
2023/06/16 01:46:23;;;;;;;;;;;;;;;;;;4989098;28;8504;-84
2023/06/16 01:48:49;;;;;;;;;;;;;;;;;;4989571;28;8530;-84
2023/06/16 01:51:15;;;;;;;;;;;;;;;;;;4989261;28;9861;-85
2023/06/16 01:53:41;;;;;;;;;;;;;;;;;;4989214;28;7357;-82
2023/06/16 01:56:10;;;;;;;;;;;;;;;;;;4989726;28;8509;-82
2023/06/16 01:58:36;;;;;;;;;;;;;;;;;;4989222;28;8694;-82
2023/06/16 02:01:07;;;;;;;;;;;;;;;;;;4989259;28;8573;-82
2023/06/16 02:03:41;;;;;;;;;;;;;;;;;;4989025;28;8528;-82
2023/06/16 02:06:27;;;;;;;;;;;;;;;;;;4972910;28;8626;-82
2023/06/16 02:08:56;;;;;;;;;;;;;;;;;;4988715;28;8498;-82
2023/06/16 02:11:22;;;;;;;;;;;;;;;;;;4992698;28;7215;-82
2023/06/16 02:13:48;;;;;;;;;;;;;;;;;;4992777;28;8563;-82
2023/06/16 02:16:13;;;;;;;;;;;;;;;;;;4992705;28;8793;-84
2023/06/16 02:18:40;;;;;;;;;;;;;;;;;;4992921;28;8599;-82
2023/06/16 02:21:05;;;;;;;;;;;;;;;;;;4992647;28;9029;-82
2023/06/16 02:23:31;;;;;;;;;;;;;;;;;;4992893;28;8494;-82
2023/06/16 02:25:56;;;;;;;;;;;;;;;;;;4992892;28;8491;-82
2023/06/16 02:28:22;;;;;;;;;;;;;;;;;;4992745;28;8524;-82
2023/06/16 02:30:48;;;;;;;;;;;;;;;;;;4992617;28;8549;-82
2023/06/16 02:33:14;;;;;;;;;;;;;;;;;;4992290;28;9063;-82
2023/06/16 02:35:40;;;;;;;;;;;;;;;;;;4992756;28;8551;-83
2023/06/16 02:38:07;;;;;;;;;;;;;;;;;;4992307;28;8630;-84
2023/06/16 02:40:33;;;;;;;;;;;;;;;;;;4992454;28;9004;-83
2023/06/16 02:42:58;;;;;;;;;;;;;;;;;;4992433;28;8537;-83
2023/06/16 02:45:24;;;;;;;;;;;;;;;;;;4992317;28;8476;-83
2023/06/16 02:47:50;;;;;;;;;;;;;;;;;;4992354;28;8491;-83
2023/06/16 02:50:15;;;;;;;;;;;;;;;;;;4992318;28;8502;-83
2023/06/16 02:52:42;;;;;;;;;;;;;;;;;;4991986;28;8506;-83
2023/06/16 02:55:09;;;;;;;;;;;;;;;;;;4992152;28;8532;-84
2023/06/16 02:57:35;;;;;;;;;;;;;;;;;;4992388;28;8519;-83
2023/06/16 03:00:03;;;;;;;;;;;;;;;;;;4992127;28;7231;-83
2023/06/16 03:02:29;;;;;;;;;;;;;;;;;;4992167;28;8512;-83
2023/06/16 03:04:55;;;;;;;;;;;;;;;;;;4991885;28;8525;-83
2023/06/16 03:07:22;;;;;;;;;;;;;;;;;;4991861;28;8585;-82
2023/06/16 03:09:48;;;;;;;;;;;;;;;;;;4992065;28;8829;-82
2023/06/16 03:12:14;;;;;;;;;;;;;;;;;;4991917;28;7101;-83
2023/06/16 03:14:41;;;;;;;;;;;;;;;;;;4991976;28;8599;-82
2023/06/16 03:17:07;;;;;;;;;;;;;;;;;;4991775;28;8663;-83
2023/06/16 03:19:32;;;;;;;;;;;;;;;;;;4991800;28;8491;-83
2023/06/16 03:21:58;;;;;;;;;;;;;;;;;;4990527;28;8438;-83
2023/06/16 03:24:24;;;;;;;;;;;;;;;;;;4991905;28;8800;-83
2023/06/16 03:26:51;;;;;;;;;;;;;;;;;;4991695;28;8748;-82
2023/06/16 03:29:17;;;;;;;;;;;;;;;;;;4991381;28;8516;-83
2023/06/16 03:31:43;;;;;;;;;;;;;;;;;;4991522;28;7273;-83
2023/06/16 03:34:08;;;;;;;;;;;;;;;;;;4991348;28;8793;-83
2023/06/16 03:36:39;;;;;;;;;;;;;;;;;;4991643;28;8464;-83
2023/06/16 03:39:05;;;;;;;;;;;;;;;;;;4991424;28;8522;-83
2023/06/16 03:41:34;;;;;;;;;;;;;;;;;;4991281;28;8446;-83
2023/06/16 03:44:00;;;;;;;;;;;;;;;;;;4991517;28;8538;-85
2023/06/16 03:46:27;;;;;;;;;;;;;;;;;;4990726;28;8689;-85
2023/06/16 03:48:53;;;;;;;;;;;;;;;;;;4991236;28;8515;-85
2023/06/16 03:51:19;;;;;;;;;;;;;;;;;;4990993;28;7068;-85
2023/06/16 03:53:45;;;;;;;;;;;;;;;;;;4990902;28;7253;-85
2023/06/16 03:56:11;;;;;;;;;;;;;;;;;;4991150;28;8480;-85
2023/06/16 03:58:36;;;;;;;;;;;;;;;;;;4990976;28;7161;-85
2023/06/16 04:01:03;;;;;;;;;;;;;;;;;;4991037;28;8672;-85
2023/06/16 04:03:29;;;;;;;;;;;;;;;;;;4990880;28;8817;-85
2023/06/16 04:05:54;;;;;;;;;;;;;;;;;;4990654;28;8463;-85
2023/06/16 04:08:20;;;;;;;;;;;;;;;;;;4989871;28;8494;-85
2023/06/16 04:10:46;;;;;;;;;;;;;;;;;;4990982;28;8842;-84
2023/06/16 04:13:12;;;;;;;;;;;;;;;;;;4990559;28;8495;-84
2023/06/16 04:15:38;;;;;;;;;;;;;;;;;;4990536;28;8506;-85
2023/06/16 04:18:03;;;;;;;;;;;;;;;;;;4990789;28;7194;-85
2023/06/16 04:20:29;;;;;;;;;;;;;;;;;;4990565;28;8540;-85
2023/06/16 04:22:55;;;;;;;;;;;;;;;;;;4990628;28;8708;-85
2023/06/16 04:25:22;;;;;;;;;;;;;;;;;;4990801;28;8509;-84
2023/06/16 04:27:51;;;;;;;;;;;;;;;;;;4990361;28;8626;-86
2023/06/16 04:30:22;;;;;;;;;;;;;;;;;;4990946;28;8507;-85
2023/06/16 04:32:49;;;;;;;;;;;;;;;;;;4990046;28;8521;-85
2023/06/16 04:35:15;;;;;;;;;;;;;;;;;;4990497;28;7332;-85
2023/06/16 04:37:41;;;;;;;;;;;;;;;;;;4990280;28;8527;-85
2023/06/16 04:40:08;;;;;;;;;;;;;;;;;;4990667;28;7346;-85
2023/06/16 04:42:34;;;;;;;;;;;;;;;;;;4990146;28;8520;-84
2023/06/16 04:45:00;;;;;;;;;;;;;;;;;;4989797;28;7265;-85
2023/06/16 04:47:26;;;;;;;;;;;;;;;;;;4990366;28;7244;-85
2023/06/16 04:49:52;;;;;;;;;;;;;;;;;;4990024;28;8501;-84
2023/06/16 04:52:17;;;;;;;;;;;;;;;;;;4990190;28;8877;-84
2023/06/16 04:54:43;;;;;;;;;;;;;;;;;;4998698;28;8467;-85
2023/06/16 04:57:09;;;;;;;;;;;;;;;;;;5009473;28;8816;-86
2023/06/16 04:59:35;;;;;;;;;;;;;;;;;;5009805;28;8531;-86
2023/06/16 05:02:01;;;;;;;;;;;;;;;;;;5009460;28;8502;-86
2023/06/16 05:04:27;;;;;;;;;;;;;;;;;;5009725;28;8564;-85
2023/06/16 05:06:52;;;;;;;;;;;;;;;;;;5009191;28;8498;-86
2023/06/16 05:09:20;;;;;;;;;;;;;;;;;;5009540;28;8553;-85
2023/06/16 05:11:46;;;;;;;;;;;;;;;;;;5009477;28;7247;-85
2023/06/16 05:14:12;;;;;;;;;;;;;;;;;;5009913;28;8487;-86
2023/06/16 05:16:37;;;;;;;;;;;;;;;;;;5009315;28;8508;-85
2023/06/16 05:19:04;;;;;;;;;;;;;;;;;;5009315;28;7221;-86
2023/06/16 05:21:30;;;;;;;;;;;;;;;;;;5009165;28;8954;-85
2023/06/16 05:23:57;;;;;;;;;;;;;;;;;;5009179;28;8475;-87
2023/06/16 05:26:23;;;;;;;;;;;;;;;;;;5009234;28;8811;-85
2023/06/16 05:28:49;;;;;;;;;;;;;;;;;;5009077;28;8508;-85
2023/06/16 05:31:15;;;;;;;;;;;;;;;;;;5009184;28;8541;-84
2023/06/16 05:33:41;;;;;;;;;;;;;;;;;;5008867;28;7482;-84
2023/06/16 05:36:06;;;;;;;;;;;;;;;;;;5009051;28;8683;-84
2023/06/16 05:38:33;;;;;;;;;;;;;;;;;;5008946;28;7136;-84
2023/06/16 05:40:59;;;;;;;;;;;;;;;;;;5008896;28;7453;-84
2023/06/16 05:43:25;;;;;;;;;;;;;;;;;;5009216;28;7099;-84
2023/06/16 05:45:50;;;;;;;;;;;;;;;;;;5011527;28;8555;-84
2023/06/16 05:48:16;;;;;;;;;;;;;;;;;;5013048;28;8649;-84
2023/06/16 05:50:42;;;;;;;;;;;;;;;;;;5012762;28;8823;-84
2023/06/16 05:53:08;;;;;;;;;;;;;;;;;;5012829;28;8522;-83
2023/06/16 05:55:33;;;;;;;;;;;;;;;;;;5013191;28;8584;-83
2023/06/16 05:58:00;;;;;;;;;;;;;;;;;;5013193;28;8788;-84
2023/06/16 06:00:26;;;;;;;;;;;;;;;;;;5012749;28;8922;-83
2023/06/16 06:02:52;;;;;;;;;;;;;;;;;;5013067;28;8794;-84
2023/06/16 06:05:18;;;;;;;;;;;;;;;;;;5012570;28;9490;-84
2023/06/16 06:07:44;;;;;;;;;;;;;;;;;;5012594;28;7246;-84
2023/06/16 06:10:10;;;;;;;;;;;;;;;;;;5012659;28;8760;-84
2023/06/16 06:12:36;;;;;;;;;;;;;;;;;;5012398;28;8813;-84
2023/06/16 06:15:02;;;;;;;;;;;;;;;;;;5012427;28;8667;-84
2023/06/16 06:17:28;;;;;;;;;;;;;;;;;;5012556;28;8678;-84
2023/06/16 06:19:53;;;;;;;;;;;;;;;;;;5012536;28;8493;-85
2023/06/16 06:22:19;;;;;;;;;;;;;;;;;;5012151;28;8544;-84
2023/06/16 06:24:45;;;;;;;;;;;;;;;;;;5012069;28;8557;-85
2023/06/16 06:27:11;;;;;;;;;;;;;;;;;;5012429;28;7240;-84
2023/06/16 06:29:37;;;;;;;;;;;;;;;;;;5011873;28;8850;-84
2023/06/16 06:32:06;;;;;;;;;;;;;;;;;;5012111;28;9582;-84
2023/06/16 06:34:32;;;;;;;;;;;;;;;;;;5012407;28;8901;-84
2023/06/16 06:36:57;;;;;;;;;;;;;;;;;;5011993;28;7423;-84
2023/06/16 06:39:23;;;;;;;;;;;;;;;;;;5011968;28;8518;-84
2023/06/16 06:41:49;;;;;;;;;;;;;;;;;;5008708;28;8528;-82
2023/06/16 06:44:15;;;;;;;;;;;;;;;;;;4984818;28;8953;-85
2023/06/16 06:46:40;;;;;;;;;;;;;;;;;;4987158;28;8542;-84
2023/06/16 06:49:06;;;;;;;;;;;;;;;;;;5010440;28;8499;-87
2023/06/16 06:51:32;;;;;;;;;;;;;;;;;;5011148;28;8597;-85
2023/06/16 06:53:57;;;;;;;;;;;;;;;;;;5011490;28;8543;-84
2023/06/16 06:56:23;;;;;;;;;;;;;;;;;;5010974;28;8850;-83
2023/06/16 06:58:48;;;;;;;;;;;;;;;;;;5011157;28;8563;-85
2023/06/16 07:01:14;;;;;;;;;;;;;;;;;;5011655;28;8513;-85
2023/06/16 07:03:39;;;;;;;;;;;;;;;;;;5008634;28;7405;-87
2023/06/16 07:06:06;;;;;;;;;;;;;;;;;;4989534;28;7330;-88
2023/06/16 07:08:32;;;;;;;;;;;;;;;;;;4995876;28;8445;-87
2023/06/16 07:10:58;;;;;;;;;;;;;;;;;;4995180;28;8482;-87
2023/06/16 07:13:24;;;;;;;;;;;;;;;;;;4995231;28;7360;-87
2023/06/16 07:15:50;;;;;;;;;;;;;;;;;;4994943;28;8419;-88
2023/06/16 07:18:16;;;;;;;;;;;;;;;;;;4994888;28;8492;-87
2023/06/16 07:20:41;;;;;;;;;;;;;;;;;;4994965;28;7113;-89
2023/06/16 07:23:07;;;;;;;;;;;;;;;;;;4995060;28;8561;-90
2023/06/16 07:25:36;;;;;;;;;;;;;;;;;;4994853;28;8736;-89
2023/06/16 07:28:03;;;;;;;;;;;;;;;;;;4995088;28;9072;-86
2023/06/16 07:30:29;;;;;;;;;;;;;;;;;;4994903;28;8858;-86
2023/06/16 07:32:56;;;;;;;;;;;;;;;;;;4994533;28;8043;-86
2023/06/16 07:35:22;;;;;;;;;;;;;;;;;;4994668;28;8973;-87
2023/06/16 07:37:48;;;;;;;;;;;;;;;;;;4993067;28;7144;-86
2023/06/16 07:40:13;;;;;;;;;;;;;;;;;;5010909;28;7148;-88
2023/06/16 07:42:45;;;;;;;;;;;;;;;;;;5010568;28;8741;-86
2023/06/16 07:45:12;;;;;;;;;;;;;;;;;;5010693;28;8527;-87
2023/06/16 07:47:39;;;;;;;;;;;;;;;;;;5010795;28;8543;-83
2023/06/16 07:50:05;;;;;;;;;;;;;;;;;;4989413;28;8845;-88
2023/06/16 07:52:31;;;;;;;;;;;;;;;;;;4996691;28;8586;-87
2023/06/16 07:54:56;;;;;;;;;;;;;;;;;;5009952;28;9327;-87
2023/06/16 07:57:22;;;;;;;;;;;;;;;;;;5006786;28;8934;-87
2023/06/16 07:59:47;;;;;;;;;;;;;;;;;;4981214;28;8662;-87
2023/06/16 08:02:12;;;;;;;;;;;;;;;;;;4993250;28;8510;-88
2023/06/16 08:04:38;;;;;;;;;;;;;;;;;;4996193;28;7250;-87
2023/06/16 08:07:03;;;;;;;;;;;;;;;;;;4990261;28;8537;-85
2023/06/16 08:09:29;;;;;;;;;;;;;;;;;;4990624;28;8709;-84
2023/06/16 08:11:55;;;;;;;;;;;;;;;;;;4990703;28;9423;-85
2023/06/16 08:14:22;;;;;;;;;;;;;;;;;;4990805;28;8555;-85
2023/06/16 08:16:47;;;;;;;;;;;;;;;;;;4974097;28;9383;-85
2023/06/16 08:19:13;;;;;;;;;;;;;;;;;;4990625;28;8472;-86
2023/06/16 08:21:39;;;;;;;;;;;;;;;;;;4990309;28;8515;-87
2023/06/16 08:24:05;;;;;;;;;;;;;;;;;;4990574;28;7115;-88
2023/06/16 08:26:31;;;;;;;;;;;;;;;;;;4990420;28;7533;-88
2023/06/16 08:28:57;;;;;;;;;;;;;;;;;;4990601;28;8542;-85
2023/06/16 08:31:22;;;;;;;;;;;;;;;;;;4990194;28;8489;-86
2023/06/16 08:33:50;;;;;;;;;;;;;;;;;;4990157;28;8774;-88
2023/06/16 08:36:16;;;;;;;;;;;;;;;;;;4990259;28;7257;-87
2023/06/16 08:38:43;;;;;;;;;;;;;;;;;;4990049;28;8531;-87
2023/06/16 08:41:10;;;;;;;;;;;;;;;;;;4990229;28;9254;-84
2023/06/16 08:43:37;;;;;;;;;;;;;;;;;;4989922;28;8962;-85
2023/06/16 08:46:03;;;;;;;;;;;;;;;;;;4989542;28;8502;-85
2023/06/16 08:48:30;;;;;;;;;;;;;;;;;;4989932;28;7350;-86
2023/06/16 08:50:58;;;;;;;;;;;;;;;;;;4992767;28;8500;-86
2023/06/16 08:53:26;;;;;;;;;;;;;;;;;;4993146;28;8811;-89
2023/06/16 08:55:53;;;;;;;;;;;;;;;;;;4993546;28;8856;-87
2023/06/16 08:58:21;;;;;;;;;;;;;;;;;;4992421;28;8593;-85
2023/06/16 09:00:46;;;;;;;;;;;;;;;;;;4984444;28;8818;-85
2023/06/16 09:03:13;;;;;;;;;;;;;;;;;;4992943;28;8889;-87
2023/06/16 09:05:38;;;;;;;;;;;;;;;;;;4992023;28;8451;-86
2023/06/16 09:08:05;;;;;;;;;;;;;;;;;;5008231;28;8562;-86
2023/06/16 09:10:32;;;;;;;;;;;;;;;;;;5008428;28;7241;-86
2023/06/16 09:13:00;;;;;;;;;;;;;;;;;;5007506;28;9174;-87
2023/06/16 09:15:26;;;;;;;;;;;;;;;;;;5005049;28;7336;-86
2023/06/16 09:17:52;;;;;;;;;;;;;;;;;;4990345;28;8654;-86
2023/06/16 09:20:19;;;;;;;;;;;;;;;;;;4991087;28;7106;-85
2023/06/16 09:23:04;;;;;;;;;;;;;;;;;;5007963;28;8527;-84
2023/06/16 09:25:34;;;;;;;;;;;;;;;;;;4992502;28;7157;-84
2023/06/16 09:28:06;;;;;;;;;;;;;;;;;;5009473;28;8543;-85
2023/06/16 09:30:35;;;;;;;;;;;;;;;;;;4992782;28;9279;-85
2023/06/16 09:33:02;;;;;;;;;;;;;;;;;;5007181;28;8839;-84
2023/06/16 09:35:29;;;;;;;;;;;;;;;;;;4991066;28;7169;-85
2023/06/16 09:37:57;;;;;;;;;;;;;;;;;;4990965;28;8673;-86
2023/06/16 09:40:30;;;;;;;;;;;;;;;;;;4992239;28;8532;-86
2023/06/16 09:42:59;;;;;;;;;;;;;;;;;;4992452;28;8811;-86
2023/06/16 09:45:32;;;;;;;;;;;;;;;;;;4992381;28;7270;-86
2023/06/16 09:48:02;;;;;;;;;;;;;;;;;;4992538;28;7132;-86
2023/06/16 09:50:30;;;;;;;;;;;;;;;;;;4993122;28;7244;-86
2023/06/16 09:52:58;;;;;;;;;;;;;;;;;;4990802;28;8696;-88
2023/06/16 09:55:27;;;;;;;;;;;;;;;;;;4991307;28;8534;-88
2023/06/16 09:57:53;;;;;;;;;;;;;;;;;;5007552;28;8844;-87
2023/06/16 10:00:18;;;;;;;;;;;;;;;;;;4991650;28;8539;-86
2023/06/16 10:02:48;;;;;;;;;;;;;;;;;;4992255;28;8454;-86
2023/06/16 10:05:18;;;;;;;;;;;;;;;;;;4991519;28;8536;-90
2023/06/16 10:07:57;;;;;;;;;;;;;;;;;;5004250;28;8929;-87
2023/06/16 10:10:25;;;;;;;;;;;;;;;;;;4992669;28;9314;-85
2023/06/16 10:12:54;;;;;;;;;;;;;;;;;;5008972;28;8976;-87
2023/06/16 10:15:24;;;;;;;;;;;;;;;;;;5008501;28;8630;-87
2023/06/16 10:17:50;;;;;;;;;;;;;;;;;;5008305;28;8881;-87
2023/06/16 10:20:22;;;;;;;;;;;;;;;;;;5008935;28;8928;-86
2023/06/16 10:22:49;;;;;;;;;;;;;;;;;;5008518;28;8495;-88
2023/06/16 10:25:15;;;;;;;;;;;;;;;;;;5008401;28;8808;-89
2023/06/16 10:27:42;;;;;;;;;;;;;;;;;;5008405;28;8927;-87
2023/06/16 10:30:09;;;;;;;;;;;;;;;;;;5008764;28;8709;-87
2023/06/16 10:32:37;;;;;;;;;;;;;;;;;;5012096;28;7351;-87
2023/06/16 10:35:05;;;;;;;;;;;;;;;;;;5012674;28;8924;-90
2023/06/16 10:37:31;;;;;;;;;;;;;;;;;;5013229;28;8591;-90
2023/06/16 10:40:05;;;;;;;;;;;;;;;;;;5011990;28;8608;-86
2023/06/16 10:42:35;;;;;;;;;;;;;;;;;;5012026;28;9305;-88
2023/06/16 10:45:19;;;;;;;;;;;;;;;;;;5011771;28;8630;-87
2023/06/16 10:48:01;;;;;;;;;;;;;;;;;;5011669;28;8930;-88
2023/06/16 10:50:32;;;;;;;;;;;;;;;;;;5011568;28;8733;-87
2023/06/16 10:53:08;;;;;;;;;;;;;;;;;;5007695;28;8557;-90
2023/06/16 10:55:35;;;;;;;;;;;;;;;;;;4993632;28;8543;-86
2023/06/16 10:58:14;;;;;;;;;;;;;;;;;;4995536;28;9251;-87
2023/06/16 11:00:44;;;;;;;;;;;;;;;;;;4977029;28;8516;-88
2023/06/16 11:03:10;;;;;;;;;;;;;;;;;;4991863;28;8910;-87
2023/06/16 11:05:36;;;;;;;;;;;;;;;;;;5007376;28;8532;-89
2023/06/16 11:08:05;;;;;;;;;;;;;;;;;;5011411;28;8562;-88
2023/06/16 11:10:46;;;;;;;;;;;;;;;;;;5009721;28;8994;-89
2023/06/16 11:13:16;;;;;;;;;;;;;;;;;;4991519;28;9531;-88
2023/06/16 11:15:42;;;;;;;;;;;;;;;;;;5012217;28;8579;-89
2023/06/16 11:18:08;;;;;;;;;;;;;;;;;;5011107;28;8969;-88
2023/06/16 11:20:35;;;;;;;;;;;;;;;;;;5012540;28;8799;-87
2023/06/16 11:23:04;;;;;;;;;;;;;;;;;;5012127;28;7296;-88
2023/06/16 11:25:29;;;;;;;;;;;;;;;;;;5011281;28;8443;-91
2023/06/16 11:27:55;;;;;;;;;;;;;;;;;;5010963;28;8534;-87
2023/06/16 11:30:20;;;;;;;;;;;;;;;;;;5011024;28;8729;-87
2023/06/16 11:32:50;;;;;;;;;;;;;;;;;;5010817;28;8525;-86
2023/06/16 11:35:16;;;;;;;;;;;;;;;;;;5011582;28;8836;-90
2023/06/16 11:37:48;;;;;;;;;;;;;;;;;;5010882;28;8797;-90
2023/06/16 11:40:17;;;;;;;;;;;;;;;;;;5011802;28;8529;-89
2023/06/16 11:42:43;;;;;;;;;;;;;;;;;;5009594;28;8479;-89
2023/06/16 11:45:08;;;;;;;;;;;;;;;;;;5010890;28;8436;-87
2023/06/16 11:47:34;;;;;;;;;;;;;;;;;;5010412;28;7216;-87
2023/06/16 11:50:00;;;;;;;;;;;;;;;;;;5010685;28;9034;-86
2023/06/16 11:52:27;;;;;;;;;;;;;;;;;;5002677;28;7121;-88
2023/06/16 11:54:57;;;;;;;;;;;;;;;;;;4990075;28;7301;-87
2023/06/16 11:57:23;;;;;;;;;;;;;;;;;;5007069;28;7249;-87
2023/06/16 11:59:49;;;;;;;;;;;;;;;;;;4978069;28;8598;-88
2023/06/16 12:02:15;;;;;;;;;;;;;;;;;;5010382;28;7232;-88
2023/06/16 12:04:41;;;;;;;;;;;;;;;;;;5010408;28;8502;-87
2023/06/16 12:07:07;;;;;;;;;;;;;;;;;;5010306;28;8512;-88
2023/06/16 12:09:36;;;;;;;;;;;;;;;;;;5010198;28;7213;-87
2023/06/16 12:12:07;;;;;;;;;;;;;;;;;;4987374;28;8508;-87
2023/06/16 12:14:36;;;;;;;;;;;;;;;;;;5004852;28;8550;-88
2023/06/16 12:17:02;;;;;;;;;;;;;;;;;;4987542;28;8580;-88
2023/06/16 12:19:28;;;;;;;;;;;;;;;;;;4982897;28;8590;-90
2023/06/16 12:22:00;;;;;;;;;;;;;;;;;;4991959;28;8927;-88
2023/06/16 12:24:27;;;;;;;;;;;;;;;;;;4980322;28;9344;-87
2023/06/16 12:26:53;;;;;;;;;;;;;;;;;;4999950;28;8546;-88
2023/06/16 12:29:20;;;;;;;;;;;;;;;;;;5009498;28;9453;-88
2023/06/16 12:32:04;;;;;;;;;;;;;;;;;;5009657;28;9084;-88
2023/06/16 12:34:32;;;;;;;;;;;;;;;;;;4990130;28;7166;-88
2023/06/16 12:37:01;;;;;;;;;;;;;;;;;;4990229;28;8972;-88
2023/06/16 12:39:27;;;;;;;;;;;;;;;;;;4993398;28;8904;-88
2023/06/16 12:42:01;;;;;;;;;;;;;;;;;;5007825;28;8500;-89
2023/06/16 12:44:43;;;;;;;;;;;;;;;;;;4990638;28;8630;-88
2023/06/16 12:47:10;;;;;;;;;;;;;;;;;;4992460;28;8872;-88
2023/06/16 12:49:36;;;;;;;;;;;;;;;;;;4993144;28;8545;-88
2023/06/16 12:52:02;;;;;;;;;;;;;;;;;;4991036;28;8713;-88
2023/06/16 12:54:27;;;;;;;;;;;;;;;;;;4989592;28;9279;-88
2023/06/16 12:56:53;;;;;;;;;;;;;;;;;;4984469;28;8537;-87
2023/06/16 12:59:18;;;;;;;;;;;;;;;;;;4991997;28;8521;-88
2023/06/16 13:01:45;;;;;;;;;;;;;;;;;;4992265;28;8950;-88
2023/06/16 13:04:10;;;;;;;;;;;;;;;;;;5008246;28;9977;-88
2023/06/16 13:06:36;;;;;;;;;;;;;;;;;;5006055;28;8497;-88
2023/06/16 13:09:02;;;;;;;;;;;;;;;;;;4978423;28;7249;-88
2023/06/16 13:11:27;;;;;;;;;;;;;;;;;;5006190;28;7154;-86
2023/06/16 13:13:53;;;;;;;;;;;;;;;;;;4976745;28;8571;-90
2023/06/16 13:16:18;;;;;;;;;;;;;;;;;;4992782;28;8503;-91
2023/06/16 13:18:45;;;;;;;;;;;;;;;;;;5009293;28;8594;-91
2023/06/16 13:21:11;;;;;;;;;;;;;;;;;;5009282;28;9242;-92
2023/06/16 13:23:42;;;;;;;;;;;;;;;;;;5005748;28;8473;-91
2023/06/16 13:26:13;;;;;;;;;;;;;;;;;;4973343;28;8565;-91
2023/06/16 13:28:40;;;;;;;;;;;;;;;;;;4975658;28;8794;-92
2023/06/16 13:31:09;;;;;;;;;;;;;;;;;;5008122;28;8617;-91
2023/06/16 13:33:37;;;;;;;;;;;;;;;;;;5006605;28;8837;-92
2023/06/16 13:36:06;;;;;;;;;;;;;;;;;;5007187;28;8595;-91
2023/06/16 13:38:32;;;;;;;;;;;;;;;;;;5004374;28;8472;-91
2023/06/16 13:40:57;;;;;;;;;;;;;;;;;;5002349;28;8522;-93
2023/06/16 13:43:23;;;;;;;;;;;;;;;;;;4988849;28;8802;-92
2023/06/16 13:45:49;;;;;;;;;;;;;;;;;;5002461;28;8987;-91
2023/06/16 13:48:15;;;;;;;;;;;;;;;;;;4989087;28;7126;-91
2023/06/16 13:50:42;;;;;;;;;;;;;;;;;;4992354;28;7301;-92
2023/06/16 13:53:07;;;;;;;;;;;;;;;;;;4992390;28;8848;-93
2023/06/16 13:55:34;;;;;;;;;;;;;;;;;;4992248;28;8435;-92
2023/06/16 13:58:00;;;;;;;;;;;;;;;;;;4992425;28;8883;-92
2023/06/16 14:00:25;;;;;;;;;;;;;;;;;;4989739;28;8757;-91
2023/06/16 14:02:54;;;;;;;;;;;;;;;;;;4991869;28;8782;-91
2023/06/16 14:05:20;;;;;;;;;;;;;;;;;;5009535;28;7302;-89
2023/06/16 14:07:47;;;;;;;;;;;;;;;;;;5012405;28;7360;-91
2023/06/16 14:10:16;;;;;;;;;;;;;;;;;;5012007;28;9194;-91
2023/06/16 14:12:44;;;;;;;;;;;;;;;;;;5007731;28;8813;-91
2023/06/16 14:15:16;;;;;;;;;;;;;;;;;;5006084;28;9122;-93
2023/06/16 14:17:42;;;;;;;;;;;;;;;;;;4981306;28;8542;-91
2023/06/16 14:20:09;;;;;;;;;;;;;;;;;;5008300;28;8529;-91
2023/06/16 14:22:36;;;;;;;;;;;;;;;;;;4994691;28;7545;-90
2023/06/16 14:25:02;;;;;;;;;;;;;;;;;;4988036;28;8905;-90
2023/06/16 14:27:28;;;;;;;;;;;;;;;;;;5009417;28;9006;-91
2023/06/16 14:29:53;;;;;;;;;;;;;;;;;;5008151;28;8717;-91
2023/06/16 14:32:19;;;;;;;;;;;;;;;;;;4988445;28;8484;-90
2023/06/16 14:34:45;;;;;;;;;;;;;;;;;;5008465;28;9336;-86
2023/06/16 14:37:11;;;;;;;;;;;;;;;;;;4984700;28;8770;-90
2023/06/16 14:39:36;;;;;;;;;;;;;;;;;;5008616;28;8532;-92
2023/06/16 14:42:02;;;;;;;;;;;;;;;;;;4991664;28;8536;-91
2023/06/16 14:44:27;;;;;;;;;;;;;;;;;;5009171;28;8532;-92
2023/06/16 14:46:53;;;;;;;;;;;;;;;;;;4994111;28;8581;-91
2023/06/16 14:49:18;;;;;;;;;;;;;;;;;;4994621;28;8846;-92
2023/06/16 14:51:44;;;;;;;;;;;;;;;;;;5008607;28;9073;-91
2023/06/16 14:54:10;;;;;;;;;;;;;;;;;;4975950;28;8825;-91
2023/06/16 14:56:36;;;;;;;;;;;;;;;;;;4975731;28;8647;-92
2023/06/16 14:59:03;;;;;;;;;;;;;;;;;;4979256;28;6956;-91
2023/06/16 15:01:28;;;;;;;;;;;;;;;;;;5011417;28;8779;-91
2023/06/16 15:03:54;;;;;;;;;;;;;;;;;;5011449;28;8836;-92
2023/06/16 15:06:20;;;;;;;;;;;;;;;;;;5011510;28;8425;-92
2023/06/16 15:08:46;;;;;;;;;;;;;;;;;;5011326;28;8515;-91
2023/06/16 15:11:12;;;;;;;;;;;;;;;;;;5009340;28;8426;-92
2023/06/16 15:13:37;;;;;;;;;;;;;;;;;;4989643;28;8597;-91
2023/06/16 15:16:03;;;;;;;;;;;;;;;;;;5008975;28;8445;-92
2023/06/16 15:18:29;;;;;;;;;;;;;;;;;;4985700;28;8585;-91
2023/06/16 15:20:55;;;;;;;;;;;;;;;;;;5006854;28;8489;-91
2023/06/16 15:23:21;;;;;;;;;;;;;;;;;;5009815;28;8745;-91
2023/06/16 15:25:47;;;;;;;;;;;;;;;;;;5010842;28;8501;-90
2023/06/16 15:28:13;;;;;;;;;;;;;;;;;;5010536;28;8605;-90
2023/06/16 15:30:39;;;;;;;;;;;;;;;;;;5007750;28;7203;-89
2023/06/16 15:33:05;;;;;;;;;;;;;;;;;;5004673;28;8661;-91
2023/06/16 15:35:30;;;;;;;;;;;;;;;;;;5002275;28;6952;-89
2023/06/16 15:37:56;;;;;;;;;;;;;;;;;;5004939;28;8502;-89
2023/06/16 15:40:21;;;;;;;;;;;;;;;;;;5004360;28;8500;-85
2023/06/16 15:42:46;;;;;;;;;;;;;;;;;;4992453;28;8592;-88
2023/06/16 15:45:12;;;;;;;;;;;;;;;;;;5005908;28;8649;-86
2023/06/16 15:47:38;;;;;;;;;;;;;;;;;;5006958;28;8578;-87
2023/06/16 15:50:03;;;;;;;;;;;;;;;;;;4987672;28;8524;-86
2023/06/16 15:52:29;;;;;;;;;;;;;;;;;;4993738;28;8566;-88
2023/06/16 15:54:55;;;;;;;;;;;;;;;;;;4994132;28;8829;-86
2023/06/16 15:57:21;;;;;;;;;;;;;;;;;;4993564;28;8598;-86
2023/06/16 15:59:47;;;;;;;;;;;;;;;;;;4991046;28;9507;-85
2023/06/16 16:02:12;;;;;;;;;;;;;;;;;;4990699;28;8510;-86
2023/06/16 16:04:38;;;;;;;;;;;;;;;;;;4991000;28;8854;-86
2023/06/16 16:07:04;;;;;;;;;;;;;;;;;;4990869;28;8963;-87
2023/06/16 16:09:30;;;;;;;;;;;;;;;;;;4990858;28;8595;-86
2023/06/16 16:11:56;;;;;;;;;;;;;;;;;;4995857;28;8448;-86
2023/06/16 16:14:21;;;;;;;;;;;;;;;;;;5010193;28;8839;-87
2023/06/16 16:16:47;;;;;;;;;;;;;;;;;;5009598;28;8577;-87
2023/06/16 16:19:13;;;;;;;;;;;;;;;;;;5009734;28;8612;-86
2023/06/16 16:21:39;;;;;;;;;;;;;;;;;;5007651;28;8573;-87
2023/06/16 16:24:09;;;;;;;;;;;;;;;;;;4993184;28;9098;-86
2023/06/16 16:26:35;;;;;;;;;;;;;;;;;;5009316;28;8542;-87
2023/06/16 16:29:00;;;;;;;;;;;;;;;;;;4992702;28;8587;-85
2023/06/16 16:31:26;;;;;;;;;;;;;;;;;;4993611;28;8535;-86
2023/06/16 16:33:51;;;;;;;;;;;;;;;;;;5009785;28;8571;-87
2023/06/16 16:36:18;;;;;;;;;;;;;;;;;;5006631;28;8901;-85
2023/06/16 16:38:44;;;;;;;;;;;;;;;;;;4982098;28;7358;-86
2023/06/16 16:41:09;;;;;;;;;;;;;;;;;;5009849;28;7328;-85
2023/06/16 16:43:35;;;;;;;;;;;;;;;;;;5009661;28;8434;-86
2023/06/16 16:46:00;;;;;;;;;;;;;;;;;;4993018;28;8795;-87
2023/06/16 16:48:26;;;;;;;;;;;;;;;;;;4993304;28;8546;-86
2023/06/16 16:50:54;;;;;;;;;;;;;;;;;;4992924;28;8786;-87
2023/06/16 16:53:20;;;;;;;;;;;;;;;;;;4993089;28;7322;-87
2023/06/16 16:55:46;;;;;;;;;;;;;;;;;;4993455;28;8581;-85
2023/06/16 16:58:11;;;;;;;;;;;;;;;;;;4993222;28;8494;-87
2023/06/16 17:00:37;;;;;;;;;;;;;;;;;;4992950;28;8662;-88